sensor_id;sensor_type;location;lat;lon;timestamp;temperature;humidity
55064;DHT22;40963;52.168;21.296;2022-07-29T00:02:24;12.70;99.90
55064;DHT22;40963;52.168;21.296;2022-07-29T00:04:50;12.60;99.90
55064;DHT22;40963;52.168;21.296;2022-07-29T00:07:16;12.60;99.90
55064;DHT22;40963;52.168;21.296;2022-07-29T00:09:41;12.70;99.90
55064;DHT22;40963;52.168;21.296;2022-07-29T00:12:07;12.70;99.90
55064;DHT22;40963;52.168;21.296;2022-07-29T00:14:33;12.60;99.90
55064;DHT22;40963;52.168;21.296;2022-07-29T00:16:58;12.70;99.90
55064;DHT22;40963;52.168;21.296;2022-07-29T00:19:24;12.70;99.90
55064;DHT22;40963;52.168;21.296;2022-07-29T00:21:50;12.70;99.90
55064;DHT22;40963;52.168;21.296;2022-07-29T00:24:15;12.70;99.90
55064;DHT22;40963;52.168;21.296;2022-07-29T00:26:41;12.70;99.90
55064;DHT22;40963;52.168;21.296;2022-07-29T00:29:06;12.70;99.90
55064;DHT22;40963;52.168;21.296;2022-07-29T00:31:32;12.70;99.90
55064;DHT22;40963;52.168;21.296;2022-07-29T00:33:58;12.70;99.90
55064;DHT22;40963;52.168;21.296;2022-07-29T00:36:23;12.60;99.90
55064;DHT22;40963;52.168;21.296;2022-07-29T00:38:50;12.60;99.90
55064;DHT22;40963;52.168;21.296;2022-07-29T00:41:17;12.60;99.90
55064;DHT22;40963;52.168;21.296;2022-07-29T00:43:43;12.60;99.90
55064;DHT22;40963;52.168;21.296;2022-07-29T00:46:09;12.50;99.90
55064;DHT22;40963;52.168;21.296;2022-07-29T00:48:35;12.50;99.90
55064;DHT22;40963;52.168;21.296;2022-07-29T00:51:02;12.40;99.90
55064;DHT22;40963;52.168;21.296;2022-07-29T00:53:29;12.30;99.90
55064;DHT22;40963;52.168;21.296;2022-07-29T00:55:55;12.30;99.90
55064;DHT22;40963;52.168;21.296;2022-07-29T00:58:22;12.30;99.90
55064;DHT22;40963;52.168;21.296;2022-07-29T01:00:47;12.30;99.90
55064;DHT22;40963;52.168;21.296;2022-07-29T01:03:13;12.20;99.90
55064;DHT22;40963;52.168;21.296;2022-07-29T01:05:41;12.20;99.90
55064;DHT22;40963;52.168;21.296;2022-07-29T01:08:07;12.20;99.90
55064;DHT22;40963;52.168;21.296;2022-07-29T01:10:33;12.20;99.90
55064;DHT22;40963;52.168;21.296;2022-07-29T01:13:04;12.20;99.90
55064;DHT22;40963;52.168;21.296;2022-07-29T01:15:30;12.20;99.90
55064;DHT22;40963;52.168;21.296;2022-07-29T01:18:11;12.20;99.90
55064;DHT22;40963;52.168;21.296;2022-07-29T01:29:02;12.30;99.90
55064;DHT22;40963;52.168;21.296;2022-07-29T01:31:34;12.30;99.90
55064;DHT22;40963;52.168;21.296;2022-07-29T01:34:05;12.20;99.90
55064;DHT22;40963;52.168;21.296;2022-07-29T01:36:35;12.20;99.90
55064;DHT22;40963;52.168;21.296;2022-07-29T01:39:08;12.20;99.90
55064;DHT22;40963;52.168;21.296;2022-07-29T01:41:40;12.20;99.90
55064;DHT22;40963;52.168;21.296;2022-07-29T01:44:24;12.20;99.90
55064;DHT22;40963;52.168;21.296;2022-07-29T01:46:55;12.20;99.90
55064;DHT22;40963;52.168;21.296;2022-07-29T01:49:29;12.20;99.90
55064;DHT22;40963;52.168;21.296;2022-07-29T01:52:05;12.20;99.90
55064;DHT22;40963;52.168;21.296;2022-07-29T01:54:37;12.20;99.90
55064;DHT22;40963;52.168;21.296;2022-07-29T01:57:06;12.20;99.90
55064;DHT22;40963;52.168;21.296;2022-07-29T01:59:34;12.20;99.90
55064;DHT22;40963;52.168;21.296;2022-07-29T02:02:02;12.10;99.90
55064;DHT22;40963;52.168;21.296;2022-07-29T02:04:29;12.10;99.90
55064;DHT22;40963;52.168;21.296;2022-07-29T02:06:58;12.10;99.90
55064;DHT22;40963;52.168;21.296;2022-07-29T02:09:26;12.10;99.90
55064;DHT22;40963;52.168;21.296;2022-07-29T02:11:53;12.10;99.90
55064;DHT22;40963;52.168;21.296;2022-07-29T02:14:22;12.10;99.90
55064;DHT22;40963;52.168;21.296;2022-07-29T02:16:51;12.10;99.90
55064;DHT22;40963;52.168;21.296;2022-07-29T02:19:21;12.10;99.90
55064;DHT22;40963;52.168;21.296;2022-07-29T02:21:48;12.10;99.90
55064;DHT22;40963;52.168;21.296;2022-07-29T02:24:15;12.10;99.90
55064;DHT22;40963;52.168;21.296;2022-07-29T02:26:43;12.10;99.90
55064;DHT22;40963;52.168;21.296;2022-07-29T02:29:10;12.10;99.90
55064;DHT22;40963;52.168;21.296;2022-07-29T02:31:39;12.10;99.90
55064;DHT22;40963;52.168;21.296;2022-07-29T02:34:08;12.10;99.90
55064;DHT22;40963;52.168;21.296;2022-07-29T02:36:34;12.10;99.90
55064;DHT22;40963;52.168;21.296;2022-07-29T02:39:02;12.00;99.90
55064;DHT22;40963;52.168;21.296;2022-07-29T02:41:37;12.10;99.90
55064;DHT22;40963;52.168;21.296;2022-07-29T02:44:11;12.00;99.90
55064;DHT22;40963;52.168;21.296;2022-07-29T02:46:43;12.10;99.90
55064;DHT22;40963;52.168;21.296;2022-07-29T02:51:58;12.00;99.90
55064;DHT22;40963;52.168;21.296;2022-07-29T02:54:42;12.00;99.90
55064;DHT22;40963;52.168;21.296;2022-07-29T02:57:16;11.90;99.90
55064;DHT22;40963;52.168;21.296;2022-07-29T02:59:45;11.90;99.90
55064;DHT22;40963;52.168;21.296;2022-07-29T03:02:14;11.90;99.90
55064;DHT22;40963;52.168;21.296;2022-07-29T03:04:41;11.90;99.90
55064;DHT22;40963;52.168;21.296;2022-07-29T03:07:08;11.90;99.90
55064;DHT22;40963;52.168;21.296;2022-07-29T03:09:36;11.80;99.90
55064;DHT22;40963;52.168;21.296;2022-07-29T03:12:02;11.80;99.90
55064;DHT22;40963;52.168;21.296;2022-07-29T03:14:30;11.80;99.90
55064;DHT22;40963;52.168;21.296;2022-07-29T03:16:56;11.80;99.90
55064;DHT22;40963;52.168;21.296;2022-07-29T03:19:22;11.80;99.90
55064;DHT22;40963;52.168;21.296;2022-07-29T03:21:48;11.80;99.90
55064;DHT22;40963;52.168;21.296;2022-07-29T03:24:34;11.80;99.90
55064;DHT22;40963;52.168;21.296;2022-07-29T03:27:01;11.80;99.90
55064;DHT22;40963;52.168;21.296;2022-07-29T03:29:27;11.80;99.90
55064;DHT22;40963;52.168;21.296;2022-07-29T03:31:53;11.80;99.90
55064;DHT22;40963;52.168;21.296;2022-07-29T03:34:19;11.70;99.90
55064;DHT22;40963;52.168;21.296;2022-07-29T03:36:46;11.70;99.90
55064;DHT22;40963;52.168;21.296;2022-07-29T03:39:15;11.70;99.90
55064;DHT22;40963;52.168;21.296;2022-07-29T03:41:42;11.70;99.90
55064;DHT22;40963;52.168;21.296;2022-07-29T03:44:09;11.80;99.90
55064;DHT22;40963;52.168;21.296;2022-07-29T03:46:39;11.80;99.90
55064;DHT22;40963;52.168;21.296;2022-07-29T03:49:05;11.90;99.90
55064;DHT22;40963;52.168;21.296;2022-07-29T03:51:33;11.90;99.90
55064;DHT22;40963;52.168;21.296;2022-07-29T03:54:02;11.90;99.90
55064;DHT22;40963;52.168;21.296;2022-07-29T03:56:29;11.90;99.90
55064;DHT22;40963;52.168;21.296;2022-07-29T03:58:55;11.90;99.90
55064;DHT22;40963;52.168;21.296;2022-07-29T04:01:22;12.00;99.90
55064;DHT22;40963;52.168;21.296;2022-07-29T04:03:49;12.00;99.90
55064;DHT22;40963;52.168;21.296;2022-07-29T04:06:14;12.00;99.90
55064;DHT22;40963;52.168;21.296;2022-07-29T04:08:40;12.10;99.90
55064;DHT22;40963;52.168;21.296;2022-07-29T04:11:06;12.10;99.90
55064;DHT22;40963;52.168;21.296;2022-07-29T04:13:32;12.20;99.90
55064;DHT22;40963;52.168;21.296;2022-07-29T04:15:58;12.30;99.90
55064;DHT22;40963;52.168;21.296;2022-07-29T04:18:24;12.30;99.90
55064;DHT22;40963;52.168;21.296;2022-07-29T04:20:50;12.40;99.90
55064;DHT22;40963;52.168;21.296;2022-07-29T04:23:15;12.50;99.90
55064;DHT22;40963;52.168;21.296;2022-07-29T04:25:42;12.60;99.90
55064;DHT22;40963;52.168;21.296;2022-07-29T04:28:09;12.70;99.90
55064;DHT22;40963;52.168;21.296;2022-07-29T04:30:35;12.80;99.90
55064;DHT22;40963;52.168;21.296;2022-07-29T04:33:03;12.90;99.90
55064;DHT22;40963;52.168;21.296;2022-07-29T04:35:30;13.00;99.90
55064;DHT22;40963;52.168;21.296;2022-07-29T04:37:56;13.00;99.90
55064;DHT22;40963;52.168;21.296;2022-07-29T04:40:22;13.20;99.90
55064;DHT22;40963;52.168;21.296;2022-07-29T04:42:48;13.20;99.90
55064;DHT22;40963;52.168;21.296;2022-07-29T04:45:14;13.30;99.90
55064;DHT22;40963;52.168;21.296;2022-07-29T04:47:41;13.40;99.90
55064;DHT22;40963;52.168;21.296;2022-07-29T04:50:08;13.60;99.90
55064;DHT22;40963;52.168;21.296;2022-07-29T04:52:34;13.70;99.90
55064;DHT22;40963;52.168;21.296;2022-07-29T04:55:01;13.80;99.90
55064;DHT22;40963;52.168;21.296;2022-07-29T04:57:26;13.90;99.90
55064;DHT22;40963;52.168;21.296;2022-07-29T04:59:52;14.00;99.90
55064;DHT22;40963;52.168;21.296;2022-07-29T05:02:18;14.20;99.90
55064;DHT22;40963;52.168;21.296;2022-07-29T05:04:44;14.30;99.90
55064;DHT22;40963;52.168;21.296;2022-07-29T05:07:09;14.40;99.90
55064;DHT22;40963;52.168;21.296;2022-07-29T05:09:35;14.50;99.90
55064;DHT22;40963;52.168;21.296;2022-07-29T05:12:00;14.70;99.90
55064;DHT22;40963;52.168;21.296;2022-07-29T05:14:26;14.70;99.90
55064;DHT22;40963;52.168;21.296;2022-07-29T05:16:52;14.80;99.90
55064;DHT22;40963;52.168;21.296;2022-07-29T05:19:18;15.00;99.90
55064;DHT22;40963;52.168;21.296;2022-07-29T05:21:46;15.10;99.90
55064;DHT22;40963;52.168;21.296;2022-07-29T05:24:13;15.20;99.90
55064;DHT22;40963;52.168;21.296;2022-07-29T05:26:39;15.30;99.90
55064;DHT22;40963;52.168;21.296;2022-07-29T05:29:05;15.40;99.90
55064;DHT22;40963;52.168;21.296;2022-07-29T05:31:30;15.50;99.90
55064;DHT22;40963;52.168;21.296;2022-07-29T05:33:56;15.60;99.90
55064;DHT22;40963;52.168;21.296;2022-07-29T05:36:22;15.70;99.90
55064;DHT22;40963;52.168;21.296;2022-07-29T05:38:47;15.80;99.90
55064;DHT22;40963;52.168;21.296;2022-07-29T05:41:13;15.90;99.90
55064;DHT22;40963;52.168;21.296;2022-07-29T05:43:39;16.10;99.90
55064;DHT22;40963;52.168;21.296;2022-07-29T05:46:04;16.10;99.90
55064;DHT22;40963;52.168;21.296;2022-07-29T05:48:30;16.30;99.90
55064;DHT22;40963;52.168;21.296;2022-07-29T05:50:56;16.40;99.90
55064;DHT22;40963;52.168;21.296;2022-07-29T05:53:22;16.50;99.90
55064;DHT22;40963;52.168;21.296;2022-07-29T05:55:48;16.60;99.90
55064;DHT22;40963;52.168;21.296;2022-07-29T05:58:14;16.70;99.90
55064;DHT22;40963;52.168;21.296;2022-07-29T06:00:40;16.80;99.90
55064;DHT22;40963;52.168;21.296;2022-07-29T06:03:05;17.00;99.90
55064;DHT22;40963;52.168;21.296;2022-07-29T06:05:31;17.10;99.90
55064;DHT22;40963;52.168;21.296;2022-07-29T06:07:57;17.20;99.90
55064;DHT22;40963;52.168;21.296;2022-07-29T06:10:22;17.30;99.90
55064;DHT22;40963;52.168;21.296;2022-07-29T06:12:48;17.40;99.90
55064;DHT22;40963;52.168;21.296;2022-07-29T06:15:13;17.50;99.90
55064;DHT22;40963;52.168;21.296;2022-07-29T06:17:40;17.60;99.90
55064;DHT22;40963;52.168;21.296;2022-07-29T06:20:06;17.60;99.90
55064;DHT22;40963;52.168;21.296;2022-07-29T06:22:31;17.70;99.90
55064;DHT22;40963;52.168;21.296;2022-07-29T06:24:57;17.80;99.90
55064;DHT22;40963;52.168;21.296;2022-07-29T06:27:23;18.00;99.90
55064;DHT22;40963;52.168;21.296;2022-07-29T06:29:48;18.00;99.90
55064;DHT22;40963;52.168;21.296;2022-07-29T06:32:14;18.10;99.90
55064;DHT22;40963;52.168;21.296;2022-07-29T06:34:40;18.30;99.90
55064;DHT22;40963;52.168;21.296;2022-07-29T06:37:06;18.40;99.90
55064;DHT22;40963;52.168;21.296;2022-07-29T06:39:34;18.50;99.90
55064;DHT22;40963;52.168;21.296;2022-07-29T06:42:00;18.60;99.90
55064;DHT22;40963;52.168;21.296;2022-07-29T06:44:26;18.70;99.90
55064;DHT22;40963;52.168;21.296;2022-07-29T06:46:52;18.80;99.90
55064;DHT22;40963;52.168;21.296;2022-07-29T06:49:18;18.80;99.90
55064;DHT22;40963;52.168;21.296;2022-07-29T06:51:44;18.90;99.90
55064;DHT22;40963;52.168;21.296;2022-07-29T06:54:09;19.00;99.60
55064;DHT22;40963;52.168;21.296;2022-07-29T06:56:35;19.10;99.30
55064;DHT22;40963;52.168;21.296;2022-07-29T06:59:03;19.20;98.90
55064;DHT22;40963;52.168;21.296;2022-07-29T07:01:28;19.30;98.50
55064;DHT22;40963;52.168;21.296;2022-07-29T07:03:54;19.40;98.30
55064;DHT22;40963;52.168;21.296;2022-07-29T07:06:20;19.50;98.20
55064;DHT22;40963;52.168;21.296;2022-07-29T07:08:45;19.50;97.90
55064;DHT22;40963;52.168;21.296;2022-07-29T07:11:12;19.50;97.70
55064;DHT22;40963;52.168;21.296;2022-07-29T07:13:37;19.60;97.50
55064;DHT22;40963;52.168;21.296;2022-07-29T07:16:03;19.70;97.30
55064;DHT22;40963;52.168;21.296;2022-07-29T07:18:29;19.70;97.30
55064;DHT22;40963;52.168;21.296;2022-07-29T07:20:56;19.80;97.30
55064;DHT22;40963;52.168;21.296;2022-07-29T07:23:22;20.00;97.10
55064;DHT22;40963;52.168;21.296;2022-07-29T07:25:48;20.10;96.80
55064;DHT22;40963;52.168;21.296;2022-07-29T07:28:13;20.20;96.40
55064;DHT22;40963;52.168;21.296;2022-07-29T07:30:39;20.40;96.10
55064;DHT22;40963;52.168;21.296;2022-07-29T07:33:05;20.60;95.90
55064;DHT22;40963;52.168;21.296;2022-07-29T07:35:30;20.60;95.10
55064;DHT22;40963;52.168;21.296;2022-07-29T07:37:56;20.60;94.50
55064;DHT22;40963;52.168;21.296;2022-07-29T07:40:22;20.60;94.20
55064;DHT22;40963;52.168;21.296;2022-07-29T07:42:48;20.60;93.80
55064;DHT22;40963;52.168;21.296;2022-07-29T07:45:14;20.50;93.70
55064;DHT22;40963;52.168;21.296;2022-07-29T07:47:40;20.50;93.60
55064;DHT22;40963;52.168;21.296;2022-07-29T07:50:09;20.50;93.40
55064;DHT22;40963;52.168;21.296;2022-07-29T07:52:49;20.50;93.40
55064;DHT22;40963;52.168;21.296;2022-07-29T07:55:16;20.60;93.10
55064;DHT22;40963;52.168;21.296;2022-07-29T07:57:42;20.60;92.80
55064;DHT22;40963;52.168;21.296;2022-07-29T08:00:08;20.70;92.80
55064;DHT22;40963;52.168;21.296;2022-07-29T08:02:34;20.70;92.50
55064;DHT22;40963;52.168;21.296;2022-07-29T08:05:00;20.80;92.10
55064;DHT22;40963;52.168;21.296;2022-07-29T08:07:25;20.90;91.50
55064;DHT22;40963;52.168;21.296;2022-07-29T08:09:51;20.90;90.80
55064;DHT22;40963;52.168;21.296;2022-07-29T08:12:17;20.90;90.30
55064;DHT22;40963;52.168;21.296;2022-07-29T08:14:42;20.90;90.30
55064;DHT22;40963;52.168;21.296;2022-07-29T08:17:08;20.90;90.00
55064;DHT22;40963;52.168;21.296;2022-07-29T08:19:34;21.00;89.70
55064;DHT22;40963;52.168;21.296;2022-07-29T08:21:59;21.10;88.90
55064;DHT22;40963;52.168;21.296;2022-07-29T08:24:25;21.20;88.70
55064;DHT22;40963;52.168;21.296;2022-07-29T08:27:10;21.30;88.20
55064;DHT22;40963;52.168;21.296;2022-07-29T08:29:36;21.50;87.60
55064;DHT22;40963;52.168;21.296;2022-07-29T08:32:02;21.60;86.30
55064;DHT22;40963;52.168;21.296;2022-07-29T08:34:27;21.80;84.20
55064;DHT22;40963;52.168;21.296;2022-07-29T08:36:54;21.80;82.90
55064;DHT22;40963;52.168;21.296;2022-07-29T08:39:21;21.80;81.60
55064;DHT22;40963;52.168;21.296;2022-07-29T08:41:47;21.80;81.30
55064;DHT22;40963;52.168;21.296;2022-07-29T08:44:15;21.90;81.20
55064;DHT22;40963;52.168;21.296;2022-07-29T08:46:41;22.00;80.10
55064;DHT22;40963;52.168;21.296;2022-07-29T08:49:07;22.20;79.50
55064;DHT22;40963;52.168;21.296;2022-07-29T08:51:33;22.30;79.10
55064;DHT22;40963;52.168;21.296;2022-07-29T08:54:01;22.50;78.40
55064;DHT22;40963;52.168;21.296;2022-07-29T08:56:27;22.70;76.70
55064;DHT22;40963;52.168;21.296;2022-07-29T08:58:53;22.80;74.90
55064;DHT22;40963;52.168;21.296;2022-07-29T09:01:25;22.80;73.70
55064;DHT22;40963;52.168;21.296;2022-07-29T09:03:55;22.80;73.40
55064;DHT22;40963;52.168;21.296;2022-07-29T09:06:22;22.70;72.40
55064;DHT22;40963;52.168;21.296;2022-07-29T09:08:51;22.70;72.40
55064;DHT22;40963;52.168;21.296;2022-07-29T09:11:17;22.70;72.80
55064;DHT22;40963;52.168;21.296;2022-07-29T09:13:43;22.70;72.30
55064;DHT22;40963;52.168;21.296;2022-07-29T09:16:08;22.70;71.80
55064;DHT22;40963;52.168;21.296;2022-07-29T09:18:42;22.60;72.40
55064;DHT22;40963;52.168;21.296;2022-07-29T09:21:11;22.70;72.60
55064;DHT22;40963;52.168;21.296;2022-07-29T09:24:11;22.80;71.80
55064;DHT22;40963;52.168;21.296;2022-07-29T09:29:13;22.80;71.00
55064;DHT22;40963;52.168;21.296;2022-07-29T09:31:41;22.90;70.10
55064;DHT22;40963;52.168;21.296;2022-07-29T09:34:08;22.80;69.60
55064;DHT22;40963;52.168;21.296;2022-07-29T09:36:45;22.80;70.00
55064;DHT22;40963;52.168;21.296;2022-07-29T09:39:11;22.90;69.60
55064;DHT22;40963;52.168;21.296;2022-07-29T09:41:48;22.90;69.30
55064;DHT22;40963;52.168;21.296;2022-07-29T09:44:14;23.00;69.00
55064;DHT22;40963;52.168;21.296;2022-07-29T09:46:56;23.00;69.20
55064;DHT22;40963;52.168;21.296;2022-07-29T09:49:22;23.10;68.90
55064;DHT22;40963;52.168;21.296;2022-07-29T09:51:58;23.20;68.30
55064;DHT22;40963;52.168;21.296;2022-07-29T09:54:25;23.40;67.80
55064;DHT22;40963;52.168;21.296;2022-07-29T09:56:52;23.50;66.90
55064;DHT22;40963;52.168;21.296;2022-07-29T09:59:18;23.50;66.20
55064;DHT22;40963;52.168;21.296;2022-07-29T10:01:46;23.50;65.90
55064;DHT22;40963;52.168;21.296;2022-07-29T10:04:13;23.60;65.00
55064;DHT22;40963;52.168;21.296;2022-07-29T10:06:58;23.40;64.60
55064;DHT22;40963;52.168;21.296;2022-07-29T10:09:25;23.50;65.30
55064;DHT22;40963;52.168;21.296;2022-07-29T10:12:17;23.50;65.50
55064;DHT22;40963;52.168;21.296;2022-07-29T10:14:42;23.60;63.80
55064;DHT22;40963;52.168;21.296;2022-07-29T10:17:09;23.50;62.80
55064;DHT22;40963;52.168;21.296;2022-07-29T10:19:36;23.40;62.90
55064;DHT22;40963;52.168;21.296;2022-07-29T10:22:07;23.40;63.20
55064;DHT22;40963;52.168;21.296;2022-07-29T10:24:34;23.40;63.60
55064;DHT22;40963;52.168;21.296;2022-07-29T10:27:01;23.50;63.90
55064;DHT22;40963;52.168;21.296;2022-07-29T10:29:28;23.60;63.20
55064;DHT22;40963;52.168;21.296;2022-07-29T10:32:08;23.50;62.80
55064;DHT22;40963;52.168;21.296;2022-07-29T10:43:41;23.10;63.10
55064;DHT22;40963;52.168;21.296;2022-07-29T10:46:08;23.10;62.70
55064;DHT22;40963;52.168;21.296;2022-07-29T10:48:34;23.10;62.80
55064;DHT22;40963;52.168;21.296;2022-07-29T10:51:02;23.10;63.10
55064;DHT22;40963;52.168;21.296;2022-07-29T10:53:49;23.20;63.10
55064;DHT22;40963;52.168;21.296;2022-07-29T10:56:29;23.30;62.30
55064;DHT22;40963;52.168;21.296;2022-07-29T11:01:49;23.40;61.20
55064;DHT22;40963;52.168;21.296;2022-07-29T11:04:16;23.50;60.80
55064;DHT22;40963;52.168;21.296;2022-07-29T11:09:30;23.60;60.70
55064;DHT22;40963;52.168;21.296;2022-07-29T11:11:58;23.70;60.80
55064;DHT22;40963;52.168;21.296;2022-07-29T11:14:55;23.70;60.60
55064;DHT22;40963;52.168;21.296;2022-07-29T11:17:21;23.80;60.60
55064;DHT22;40963;52.168;21.296;2022-07-29T11:19:48;23.80;60.00
55064;DHT22;40963;52.168;21.296;2022-07-29T11:22:35;23.70;59.60
55064;DHT22;40963;52.168;21.296;2022-07-29T11:25:14;23.70;60.00
55064;DHT22;40963;52.168;21.296;2022-07-29T11:27:40;23.60;59.30
55064;DHT22;40963;52.168;21.296;2022-07-29T11:30:06;23.50;59.70
55064;DHT22;40963;52.168;21.296;2022-07-29T11:32:38;23.50;59.80
55064;DHT22;40963;52.168;21.296;2022-07-29T11:35:19;23.50;60.00
55064;DHT22;40963;52.168;21.296;2022-07-29T11:38:26;23.50;60.20
55064;DHT22;40963;52.168;21.296;2022-07-29T11:44:09;23.60;59.40
55064;DHT22;40963;52.168;21.296;2022-07-29T11:46:48;23.50;59.30
55064;DHT22;40963;52.168;21.296;2022-07-29T11:49:23;23.60;59.80
55064;DHT22;40963;52.168;21.296;2022-07-29T11:51:52;23.60;59.70
55064;DHT22;40963;52.168;21.296;2022-07-29T11:54:25;23.70;59.70
55064;DHT22;40963;52.168;21.296;2022-07-29T11:56:54;23.70;59.60
55064;DHT22;40963;52.168;21.296;2022-07-29T11:59:21;23.70;59.80
55064;DHT22;40963;52.168;21.296;2022-07-29T12:04:19;23.80;59.70
55064;DHT22;40963;52.168;21.296;2022-07-29T12:06:51;24.00;59.50
55064;DHT22;40963;52.168;21.296;2022-07-29T12:09:18;24.00;58.90
55064;DHT22;40963;52.168;21.296;2022-07-29T12:11:44;24.00;58.90
55064;DHT22;40963;52.168;21.296;2022-07-29T12:14:27;24.00;59.30
55064;DHT22;40963;52.168;21.296;2022-07-29T12:16:53;24.10;59.90
55064;DHT22;40963;52.168;21.296;2022-07-29T12:19:19;24.00;59.10
55064;DHT22;40963;52.168;21.296;2022-07-29T12:21:49;24.00;58.80
55064;DHT22;40963;52.168;21.296;2022-07-29T12:24:17;23.90;58.50
55064;DHT22;40963;52.168;21.296;2022-07-29T12:26:59;23.70;58.70
55064;DHT22;40963;52.168;21.296;2022-07-29T12:29:25;23.70;59.10
55064;DHT22;40963;52.168;21.296;2022-07-29T12:31:55;23.70;59.10
55064;DHT22;40963;52.168;21.296;2022-07-29T12:34:23;23.60;59.10
55064;DHT22;40963;52.168;21.296;2022-07-29T12:36:50;23.60;59.80
55064;DHT22;40963;52.168;21.296;2022-07-29T12:39:16;23.50;59.60
55064;DHT22;40963;52.168;21.296;2022-07-29T12:41:43;23.50;59.90
55064;DHT22;40963;52.168;21.296;2022-07-29T12:44:10;23.50;59.90
55064;DHT22;40963;52.168;21.296;2022-07-29T12:46:36;23.70;59.90
55064;DHT22;40963;52.168;21.296;2022-07-29T12:49:03;23.90;59.70
55064;DHT22;40963;52.168;21.296;2022-07-29T12:51:34;24.00;59.20
55064;DHT22;40963;52.168;21.296;2022-07-29T12:54:05;24.10;58.80
55064;DHT22;40963;52.168;21.296;2022-07-29T12:56:31;24.20;58.80
55064;DHT22;40963;52.168;21.296;2022-07-29T12:58:56;24.30;58.50
55064;DHT22;40963;52.168;21.296;2022-07-29T13:01:23;24.40;58.00
55064;DHT22;40963;52.168;21.296;2022-07-29T13:03:50;24.50;57.50
55064;DHT22;40963;52.168;21.296;2022-07-29T13:06:41;24.60;57.10
55064;DHT22;40963;52.168;21.296;2022-07-29T13:09:14;24.70;57.20
55064;DHT22;40963;52.168;21.296;2022-07-29T13:11:48;24.70;56.90
55064;DHT22;40963;52.168;21.296;2022-07-29T13:19:37;24.80;57.10
55064;DHT22;40963;52.168;21.296;2022-07-29T13:22:04;24.70;56.40
55064;DHT22;40963;52.168;21.296;2022-07-29T13:24:30;24.50;55.80
55064;DHT22;40963;52.168;21.296;2022-07-29T13:26:55;24.40;56.20
55064;DHT22;40963;52.168;21.296;2022-07-29T13:29:21;24.40;56.40
55064;DHT22;40963;52.168;21.296;2022-07-29T13:31:47;24.30;56.60
55064;DHT22;40963;52.168;21.296;2022-07-29T13:34:12;24.20;56.00
55064;DHT22;40963;52.168;21.296;2022-07-29T13:36:38;24.10;56.50
55064;DHT22;40963;52.168;21.296;2022-07-29T13:39:04;24.20;56.80
55064;DHT22;40963;52.168;21.296;2022-07-29T13:41:30;24.20;56.90
55064;DHT22;40963;52.168;21.296;2022-07-29T13:43:55;24.30;57.50
55064;DHT22;40963;52.168;21.296;2022-07-29T13:46:21;24.30;56.70
55064;DHT22;40963;52.168;21.296;2022-07-29T13:48:47;24.30;56.70
55064;DHT22;40963;52.168;21.296;2022-07-29T13:51:12;24.20;56.30
55064;DHT22;40963;52.168;21.296;2022-07-29T13:53:38;24.20;56.90
55064;DHT22;40963;52.168;21.296;2022-07-29T13:56:04;24.30;56.50
55064;DHT22;40963;52.168;21.296;2022-07-29T13:58:33;24.30;56.80
55064;DHT22;40963;52.168;21.296;2022-07-29T14:00:59;24.40;56.90
55064;DHT22;40963;52.168;21.296;2022-07-29T14:03:25;24.50;56.70
55064;DHT22;40963;52.168;21.296;2022-07-29T14:05:51;24.50;56.30
55064;DHT22;40963;52.168;21.296;2022-07-29T14:08:17;24.70;56.40
55064;DHT22;40963;52.168;21.296;2022-07-29T14:10:42;24.80;56.10
55064;DHT22;40963;52.168;21.296;2022-07-29T14:13:08;24.90;55.20
55064;DHT22;40963;52.168;21.296;2022-07-29T14:15:34;25.00;54.40
55064;DHT22;40963;52.168;21.296;2022-07-29T14:17:59;25.10;53.60
55064;DHT22;40963;52.168;21.296;2022-07-29T14:20:26;25.20;53.40
55064;DHT22;40963;52.168;21.296;2022-07-29T14:22:53;25.00;53.00
55064;DHT22;40963;52.168;21.296;2022-07-29T14:25:19;24.80;53.40
55064;DHT22;40963;52.168;21.296;2022-07-29T14:27:45;24.70;53.90
55064;DHT22;40963;52.168;21.296;2022-07-29T14:30:11;24.70;54.30
55064;DHT22;40963;52.168;21.296;2022-07-29T14:32:36;24.70;54.60
55064;DHT22;40963;52.168;21.296;2022-07-29T14:35:02;24.60;54.40
55064;DHT22;40963;52.168;21.296;2022-07-29T14:37:28;24.50;54.30
55064;DHT22;40963;52.168;21.296;2022-07-29T14:39:53;24.40;54.20
55064;DHT22;40963;52.168;21.296;2022-07-29T14:42:24;24.40;54.70
55064;DHT22;40963;52.168;21.296;2022-07-29T14:44:50;24.30;55.10
55064;DHT22;40963;52.168;21.296;2022-07-29T14:47:16;24.30;55.50
55064;DHT22;40963;52.168;21.296;2022-07-29T14:49:41;24.40;55.70
55064;DHT22;40963;52.168;21.296;2022-07-29T14:52:07;24.40;55.40
55064;DHT22;40963;52.168;21.296;2022-07-29T14:54:33;24.50;55.20
55064;DHT22;40963;52.168;21.296;2022-07-29T14:56:59;24.60;54.40
55064;DHT22;40963;52.168;21.296;2022-07-29T14:59:25;24.60;54.20
55064;DHT22;40963;52.168;21.296;2022-07-29T15:01:51;24.50;54.30
55064;DHT22;40963;52.168;21.296;2022-07-29T15:04:17;24.50;54.00
55064;DHT22;40963;52.168;21.296;2022-07-29T15:06:42;24.30;53.80
55064;DHT22;40963;52.168;21.296;2022-07-29T15:09:08;24.20;54.10
55064;DHT22;40963;52.168;21.296;2022-07-29T15:11:34;24.10;54.30
55064;DHT22;40963;52.168;21.296;2022-07-29T15:13:59;24.00;54.70
55064;DHT22;40963;52.168;21.296;2022-07-29T15:16:25;24.10;55.20
55064;DHT22;40963;52.168;21.296;2022-07-29T15:18:50;24.10;55.10
55064;DHT22;40963;52.168;21.296;2022-07-29T15:21:16;24.10;55.50
55064;DHT22;40963;52.168;21.296;2022-07-29T15:23:42;24.20;55.70
55064;DHT22;40963;52.168;21.296;2022-07-29T15:26:07;24.30;55.40
55064;DHT22;40963;52.168;21.296;2022-07-29T15:28:33;24.30;55.20
55064;DHT22;40963;52.168;21.296;2022-07-29T15:30:59;24.40;55.10
55064;DHT22;40963;52.168;21.296;2022-07-29T15:33:25;24.30;54.80
55064;DHT22;40963;52.168;21.296;2022-07-29T15:35:51;24.20;54.80
55064;DHT22;40963;52.168;21.296;2022-07-29T15:38:17;24.20;54.70
55064;DHT22;40963;52.168;21.296;2022-07-29T15:40:42;24.10;54.90
55064;DHT22;40963;52.168;21.296;2022-07-29T15:43:09;24.00;55.00
55064;DHT22;40963;52.168;21.296;2022-07-29T15:45:39;24.00;56.20
55064;DHT22;40963;52.168;21.296;2022-07-29T15:48:06;24.00;55.80
55064;DHT22;40963;52.168;21.296;2022-07-29T15:50:32;24.00;56.20
55064;DHT22;40963;52.168;21.296;2022-07-29T15:52:58;24.00;55.90
55064;DHT22;40963;52.168;21.296;2022-07-29T15:55:24;24.00;55.30
55064;DHT22;40963;52.168;21.296;2022-07-29T15:57:49;24.00;55.20
55064;DHT22;40963;52.168;21.296;2022-07-29T16:00:15;23.90;55.20